Aeroporto :
LOGIN :

Iscrizione | Disclaimer

   EN    FR    IT 

 










Sommario :    VFR   VFR Marginale   IFR   IFR Intensivo   IFR Molto Intensivo
Visibilità : 
Base nubi : 
>= 8 km
>= 3000ft
5 / 8 km
1000 / 3000 ft
1500m / 5 km
500 / 1000 ft
800 / 1500m
200 / 500 ft
< 800m
< 200 ft
Simboli :   Temporali  Nebbia  Neve Forte  Precipitazioni Forti  Vento > 20 kt
SIGMETs :   Varie  Temporali  Ghiacco  Turbolenza  Onda orograficha  Ceneri Vulcaniche






- Altitudine del aeroporto : 459 ft
- Codice IATA : CER


LFRC - Cherbourg / Maupertus

ULTIMO METAR :
  • 270430Z AUTO 11007KT 6000 NSC 10/09 Q1017

METARs OBSOLETI :
  • 270400Z AUTO 09006KT 5000 -RA BR NSC 10/09 Q1017
  • 270330Z AUTO 11005KT 6000 FEW021 BKN060 OVC070 09/09 Q1018
  • 270300Z AUTO 12005KT 6000 FEW015 BKN022 BKN058 09/09 Q1018
  • 270230Z AUTO 10005KT 6000 FEW011 BKN060 BKN072 09/08 Q1018
  • 270200Z AUTO 11005KT 5000 BR BKN009 OVC060 10/09 Q1018

Previsioni scadute.



MetMap, La meteo Aeronautica in un colpo d'occhio ! - Copyright ORBIFLY Dicembre 2007 - Disclaimer

ORBIFLY MET'MAP TEAM :

Programmazione e sviluppo : Alexandra Zaïnal
Concezione : Baudouin d'Aumeries
Aiuto per la programmazione : Marc-Olivier Méhu
Supporto tecnico e logistico : Manuel Goepfert
Aiuto per la traduzione : Arnaldo La Scala

Contatto : metmap@orbifly.com




FONTI E CREDITI :

   NOAA